sensor_id;sensor_type;location;lat;lon;timestamp;P1;durP1;ratioP1;P2;durP2;ratioP2
18042;SDS011;9146;48.074;11.968;2024-02-26T00:00:17;18.73;;;11.80;;
18042;SDS011;9146;48.074;11.968;2024-02-26T00:02:45;16.50;;;10.50;;
18042;SDS011;9146;48.074;11.968;2024-02-26T00:05:14;12.50;;;9.10;;
18042;SDS011;9146;48.074;11.968;2024-02-26T00:07:41;19.37;;;10.30;;
18042;SDS011;9146;48.074;11.968;2024-02-26T00:10:08;16.60;;;9.20;;
18042;SDS011;9146;48.074;11.968;2024-02-26T00:12:35;14.60;;;8.80;;
18042;SDS011;9146;48.074;11.968;2024-02-26T00:15:04;15.03;;;8.60;;
18042;SDS011;9146;48.074;11.968;2024-02-26T00:17:31;11.53;;;8.73;;
18042;SDS011;9146;48.074;11.968;2024-02-26T00:19:58;12.80;;;9.27;;
18042;SDS011;9146;48.074;11.968;2024-02-26T00:22:27;14.87;;;9.90;;
18042;SDS011;9146;48.074;11.968;2024-02-26T00:24:54;17.87;;;10.47;;
18042;SDS011;9146;48.074;11.968;2024-02-26T00:27:21;15.17;;;9.50;;
18042;SDS011;9146;48.074;11.968;2024-02-26T00:29:48;13.40;;;9.40;;
18042;SDS011;9146;48.074;11.968;2024-02-26T00:32:15;17.93;;;9.53;;
18042;SDS011;9146;48.074;11.968;2024-02-26T00:34:42;13.07;;;8.77;;
18042;SDS011;9146;48.074;11.968;2024-02-26T00:37:15;11.33;;;8.90;;
18042;SDS011;9146;48.074;11.968;2024-02-26T00:39:43;13.90;;;9.07;;
18042;SDS011;9146;48.074;11.968;2024-02-26T00:42:11;11.53;;;8.77;;
18042;SDS011;9146;48.074;11.968;2024-02-26T00:44:38;13.10;;;8.70;;
18042;SDS011;9146;48.074;11.968;2024-02-26T00:47:05;13.73;;;8.47;;
18042;SDS011;9146;48.074;11.968;2024-02-26T00:49:32;11.27;;;7.40;;
18042;SDS011;9146;48.074;11.968;2024-02-26T00:51:59;12.33;;;8.40;;
18042;SDS011;9146;48.074;11.968;2024-02-26T00:54:26;13.43;;;9.20;;
18042;SDS011;9146;48.074;11.968;2024-02-26T00:56:55;20.97;;;11.63;;
18042;SDS011;9146;48.074;11.968;2024-02-26T00:59:22;19.53;;;10.70;;
18042;SDS011;9146;48.074;11.968;2024-02-26T01:01:48;15.40;;;8.87;;
18042;SDS011;9146;48.074;11.968;2024-02-26T01:04:15;13.90;;;8.90;;
18042;SDS011;9146;48.074;11.968;2024-02-26T01:06:42;13.40;;;9.00;;
18042;SDS011;9146;48.074;11.968;2024-02-26T01:09:09;12.30;;;8.30;;
18042;SDS011;9146;48.074;11.968;2024-02-26T01:11:36;10.90;;;7.80;;
18042;SDS011;9146;48.074;11.968;2024-02-26T01:14:04;10.03;;;7.73;;
18042;SDS011;9146;48.074;11.968;2024-02-26T01:16:31;10.63;;;8.03;;
18042;SDS011;9146;48.074;11.968;2024-02-26T01:19:01;8.73;;;7.13;;
18042;SDS011;9146;48.074;11.968;2024-02-26T01:21:28;8.70;;;6.47;;
18042;SDS011;9146;48.074;11.968;2024-02-26T01:23:55;10.17;;;6.57;;
18042;SDS011;9146;48.074;11.968;2024-02-26T01:26:22;7.57;;;6.07;;
18042;SDS011;9146;48.074;11.968;2024-02-26T01:28:49;7.50;;;6.60;;
18042;SDS011;9146;48.074;11.968;2024-02-26T01:31:17;10.53;;;7.47;;
18042;SDS011;9146;48.074;11.968;2024-02-26T01:33:44;9.07;;;7.13;;
18042;SDS011;9146;48.074;11.968;2024-02-26T01:36:11;9.10;;;6.30;;
18042;SDS011;9146;48.074;11.968;2024-02-26T01:38:38;8.70;;;7.05;;
18042;SDS011;9146;48.074;11.968;2024-02-26T01:41:05;10.10;;;7.30;;
18042;SDS011;9146;48.074;11.968;2024-02-26T01:43:32;7.83;;;6.10;;
18042;SDS011;9146;48.074;11.968;2024-02-26T01:46:00;7.40;;;5.70;;
18042;SDS011;9146;48.074;11.968;2024-02-26T01:48:30;9.77;;;5.80;;
18042;SDS011;9146;48.074;11.968;2024-02-26T01:50:57;6.87;;;4.83;;
18042;SDS011;9146;48.074;11.968;2024-02-26T01:53:24;11.40;;;6.40;;
18042;SDS011;9146;48.074;11.968;2024-02-26T01:55:52;5.70;;;5.10;;
18042;SDS011;9146;48.074;11.968;2024-02-26T01:58:19;9.13;;;6.57;;
18042;SDS011;9146;48.074;11.968;2024-02-26T02:00:46;6.43;;;5.03;;
18042;SDS011;9146;48.074;11.968;2024-02-26T02:03:13;6.33;;;5.33;;
18042;SDS011;9146;48.074;11.968;2024-02-26T02:05:42;5.10;;;4.50;;
18042;SDS011;9146;48.074;11.968;2024-02-26T02:08:09;6.70;;;5.70;;
18042;SDS011;9146;48.074;11.968;2024-02-26T02:10:37;5.70;;;4.80;;
18042;SDS011;9146;48.074;11.968;2024-02-26T02:13:05;5.77;;;5.27;;
18042;SDS011;9146;48.074;11.968;2024-02-26T02:15:32;6.67;;;5.17;;
18042;SDS011;9146;48.074;11.968;2024-02-26T02:17:59;5.87;;;4.90;;
18042;SDS011;9146;48.074;11.968;2024-02-26T02:20:31;8.23;;;5.90;;
18042;SDS011;9146;48.074;11.968;2024-02-26T02:22:59;8.23;;;5.80;;
18042;SDS011;9146;48.074;11.968;2024-02-26T02:25:25;5.20;;;4.70;;
18042;SDS011;9146;48.074;11.968;2024-02-26T02:27:53;7.33;;;6.00;;
18042;SDS011;9146;48.074;11.968;2024-02-26T02:30:20;7.57;;;5.13;;
18042;SDS011;9146;48.074;11.968;2024-02-26T02:32:48;4.57;;;4.17;;
18042;SDS011;9146;48.074;11.968;2024-02-26T02:35:15;7.97;;;5.20;;
18042;SDS011;9146;48.074;11.968;2024-02-26T02:37:43;6.30;;;4.70;;
18042;SDS011;9146;48.074;11.968;2024-02-26T02:40:11;7.13;;;5.70;;
18042;SDS011;9146;48.074;11.968;2024-02-26T02:42:38;5.83;;;4.50;;
18042;SDS011;9146;48.074;11.968;2024-02-26T02:45:05;5.10;;;4.60;;
18042;SDS011;9146;48.074;11.968;2024-02-26T02:47:35;7.37;;;4.90;;
18042;SDS011;9146;48.074;11.968;2024-02-26T02:50:02;5.50;;;5.00;;
18042;SDS011;9146;48.074;11.968;2024-02-26T02:52:30;5.77;;;4.67;;
18042;SDS011;9146;48.074;11.968;2024-02-26T02:54:59;8.80;;;5.30;;
18042;SDS011;9146;48.074;11.968;2024-02-26T02:57:26;5.90;;;4.63;;
18042;SDS011;9146;48.074;11.968;2024-02-26T02:59:53;7.57;;;5.43;;
18042;SDS011;9146;48.074;11.968;2024-02-26T03:02:19;6.10;;;4.60;;
18042;SDS011;9146;48.074;11.968;2024-02-26T03:04:48;5.27;;;4.77;;
18042;SDS011;9146;48.074;11.968;2024-02-26T03:07:15;6.33;;;4.83;;
18042;SDS011;9146;48.074;11.968;2024-02-26T03:09:42;5.40;;;4.90;;
18042;SDS011;9146;48.074;11.968;2024-02-26T03:12:14;7.00;;;4.80;;
18042;SDS011;9146;48.074;11.968;2024-02-26T03:14:41;4.97;;;4.47;;
18042;SDS011;9146;48.074;11.968;2024-02-26T03:17:07;6.47;;;4.03;;
18042;SDS011;9146;48.074;11.968;2024-02-26T03:19:34;6.77;;;4.30;;
18042;SDS011;9146;48.074;11.968;2024-02-26T03:22:02;7.40;;;4.93;;
18042;SDS011;9146;48.074;11.968;2024-02-26T03:24:29;5.03;;;4.53;;
18042;SDS011;9146;48.074;11.968;2024-02-26T03:26:56;5.03;;;4.30;;
18042;SDS011;9146;48.074;11.968;2024-02-26T03:29:25;5.53;;;4.90;;
18042;SDS011;9146;48.074;11.968;2024-02-26T03:31:52;7.33;;;3.97;;
18042;SDS011;9146;48.074;11.968;2024-02-26T03:34:19;5.60;;;4.70;;
18042;SDS011;9146;48.074;11.968;2024-02-26T03:36:46;7.30;;;4.20;;
18042;SDS011;9146;48.074;11.968;2024-02-26T03:39:12;4.67;;;4.00;;
18042;SDS011;9146;48.074;11.968;2024-02-26T03:41:39;5.60;;;4.20;;
18042;SDS011;9146;48.074;11.968;2024-02-26T03:44:06;5.37;;;4.10;;
18042;SDS011;9146;48.074;11.968;2024-02-26T03:46:34;5.23;;;4.63;;
18042;SDS011;9146;48.074;11.968;2024-02-26T03:49:01;6.57;;;4.87;;
18042;SDS011;9146;48.074;11.968;2024-02-26T03:51:28;5.33;;;4.80;;
18042;SDS011;9146;48.074;11.968;2024-02-26T03:53:56;5.67;;;4.40;;
18042;SDS011;9146;48.074;11.968;2024-02-26T03:56:25;5.07;;;4.27;;
18042;SDS011;9146;48.074;11.968;2024-02-26T03:58:52;8.87;;;4.40;;
18042;SDS011;9146;48.074;11.968;2024-02-26T04:01:19;4.93;;;4.50;;
18042;SDS011;9146;48.074;11.968;2024-02-26T04:03:47;6.43;;;4.67;;
18042;SDS011;9146;48.074;11.968;2024-02-26T04:06:14;5.57;;;4.43;;
18042;SDS011;9146;48.074;11.968;2024-02-26T04:08:45;5.63;;;4.57;;
18042;SDS011;9146;48.074;11.968;2024-02-26T04:11:12;3.83;;;3.43;;
18042;SDS011;9146;48.074;11.968;2024-02-26T04:13:42;4.73;;;3.83;;
18042;SDS011;9146;48.074;11.968;2024-02-26T04:16:10;5.07;;;3.77;;
18042;SDS011;9146;48.074;11.968;2024-02-26T04:18:37;5.67;;;4.80;;
18042;SDS011;9146;48.074;11.968;2024-02-26T04:21:06;4.80;;;3.90;;
18042;SDS011;9146;48.074;11.968;2024-02-26T04:23:33;5.70;;;4.43;;
18042;SDS011;9146;48.074;11.968;2024-02-26T04:25:59;4.03;;;3.73;;
18042;SDS011;9146;48.074;11.968;2024-02-26T04:28:27;4.33;;;3.70;;
18042;SDS011;9146;48.074;11.968;2024-02-26T04:30:54;5.10;;;4.60;;
18042;SDS011;9146;48.074;11.968;2024-02-26T04:33:21;4.97;;;4.40;;
18042;SDS011;9146;48.074;11.968;2024-02-26T04:35:48;4.53;;;3.93;;
18042;SDS011;9146;48.074;11.968;2024-02-26T04:38:17;3.90;;;3.50;;
18042;SDS011;9146;48.074;11.968;2024-02-26T04:40:44;4.03;;;3.73;;
18042;SDS011;9146;48.074;11.968;2024-02-26T04:43:11;6.30;;;4.20;;
18042;SDS011;9146;48.074;11.968;2024-02-26T04:45:39;5.07;;;4.37;;
18042;SDS011;9146;48.074;11.968;2024-02-26T04:48:06;4.90;;;4.50;;
18042;SDS011;9146;48.074;11.968;2024-02-26T04:50:33;4.17;;;3.77;;
18042;SDS011;9146;48.074;11.968;2024-02-26T04:53:00;3.70;;;3.37;;
18042;SDS011;9146;48.074;11.968;2024-02-26T04:55:29;3.50;;;3.20;;
18042;SDS011;9146;48.074;11.968;2024-02-26T04:57:56;5.40;;;4.17;;
18042;SDS011;9146;48.074;11.968;2024-02-26T05:00:23;5.00;;;4.07;;
18042;SDS011;9146;48.074;11.968;2024-02-26T05:02:50;5.43;;;3.63;;
18042;SDS011;9146;48.074;11.968;2024-02-26T05:05:17;4.30;;;3.90;;
18042;SDS011;9146;48.074;11.968;2024-02-26T05:07:44;8.10;;;3.70;;
18042;SDS011;9146;48.074;11.968;2024-02-26T05:10:11;4.47;;;3.50;;
18042;SDS011;9146;48.074;11.968;2024-02-26T05:12:40;3.63;;;3.30;;
18042;SDS011;9146;48.074;11.968;2024-02-26T05:15:08;3.97;;;3.57;;
18042;SDS011;9146;48.074;11.968;2024-02-26T05:17:35;3.27;;;2.97;;
18042;SDS011;9146;48.074;11.968;2024-02-26T05:20:02;3.13;;;2.93;;
18042;SDS011;9146;48.074;11.968;2024-02-26T05:22:33;3.90;;;3.50;;
18042;SDS011;9146;48.074;11.968;2024-02-26T05:25:00;3.47;;;3.17;;
18042;SDS011;9146;48.074;11.968;2024-02-26T05:27:27;3.10;;;2.70;;
18042;SDS011;9146;48.074;11.968;2024-02-26T05:29:55;4.00;;;3.40;;
18042;SDS011;9146;48.074;11.968;2024-02-26T05:32:22;4.50;;;2.70;;
18042;SDS011;9146;48.074;11.968;2024-02-26T05:34:49;2.80;;;2.60;;
18042;SDS011;9146;48.074;11.968;2024-02-26T05:37:16;3.13;;;2.93;;
18042;SDS011;9146;48.074;11.968;2024-02-26T05:39:43;3.50;;;2.47;;
18042;SDS011;9146;48.074;11.968;2024-02-26T05:42:10;3.30;;;3.00;;
18042;SDS011;9146;48.074;11.968;2024-02-26T05:44:36;3.07;;;2.80;;
18042;SDS011;9146;48.074;11.968;2024-02-26T05:47:05;2.50;;;2.30;;
18042;SDS011;9146;48.074;11.968;2024-02-26T05:49:32;2.70;;;2.07;;
18042;SDS011;9146;48.074;11.968;2024-02-26T05:51:59;2.27;;;2.07;;
18042;SDS011;9146;48.074;11.968;2024-02-26T05:54:27;2.63;;;2.43;;
18042;SDS011;9146;48.074;11.968;2024-02-26T05:56:54;2.40;;;2.20;;
18042;SDS011;9146;48.074;11.968;2024-02-26T05:59:21;2.23;;;2.13;;
18042;SDS011;9146;48.074;11.968;2024-02-26T06:01:47;2.63;;;2.20;;
18042;SDS011;9146;48.074;11.968;2024-02-26T06:04:16;2.80;;;2.60;;
18042;SDS011;9146;48.074;11.968;2024-02-26T06:06:43;2.00;;;1.90;;
18042;SDS011;9146;48.074;11.968;2024-02-26T06:09:11;3.00;;;2.70;;
18042;SDS011;9146;48.074;11.968;2024-02-26T06:11:38;3.00;;;2.67;;
18042;SDS011;9146;48.074;11.968;2024-02-26T06:14:05;1.90;;;1.80;;
18042;SDS011;9146;48.074;11.968;2024-02-26T06:16:32;2.03;;;1.93;;
18042;SDS011;9146;48.074;11.968;2024-02-26T06:19:00;2.60;;;2.40;;
18042;SDS011;9146;48.074;11.968;2024-02-26T06:21:28;2.50;;;2.30;;
18042;SDS011;9146;48.074;11.968;2024-02-26T06:23:55;2.97;;;2.70;;
18042;SDS011;9146;48.074;11.968;2024-02-26T06:26:22;5.03;;;2.43;;
18042;SDS011;9146;48.074;11.968;2024-02-26T06:28:49;3.17;;;2.83;;
18042;SDS011;9146;48.074;11.968;2024-02-26T06:31:17;2.87;;;2.67;;
18042;SDS011;9146;48.074;11.968;2024-02-26T06:33:44;3.60;;;2.67;;
18042;SDS011;9146;48.074;11.968;2024-02-26T06:36:11;3.10;;;2.80;;
18042;SDS011;9146;48.074;11.968;2024-02-26T06:38:39;5.07;;;3.03;;
18042;SDS011;9146;48.074;11.968;2024-02-26T06:41:06;3.07;;;2.73;;
18042;SDS011;9146;48.074;11.968;2024-02-26T06:43:36;3.80;;;2.93;;
18042;SDS011;9146;48.074;11.968;2024-02-26T06:46:03;3.83;;;3.03;;
18042;SDS011;9146;48.074;11.968;2024-02-26T06:48:31;2.83;;;2.63;;
18042;SDS011;9146;48.074;11.968;2024-02-26T06:50:58;5.70;;;2.90;;
18042;SDS011;9146;48.074;11.968;2024-02-26T06:53:25;2.40;;;2.23;;
18042;SDS011;9146;48.074;11.968;2024-02-26T06:55:54;3.13;;;2.80;;
18042;SDS011;9146;48.074;11.968;2024-02-26T06:58:21;2.70;;;2.50;;
18042;SDS011;9146;48.074;11.968;2024-02-26T07:00:47;2.53;;;2.33;;
18042;SDS011;9146;48.074;11.968;2024-02-26T07:03:14;2.53;;;2.37;;
18042;SDS011;9146;48.074;11.968;2024-02-26T07:05:41;2.80;;;2.60;;
18042;SDS011;9146;48.074;11.968;2024-02-26T07:08:10;3.93;;;2.40;;
18042;SDS011;9146;48.074;11.968;2024-02-26T07:10:37;3.10;;;2.80;;
18042;SDS011;9146;48.074;11.968;2024-02-26T07:13:05;2.70;;;2.50;;
18042;SDS011;9146;48.074;11.968;2024-02-26T07:15:32;2.97;;;2.50;;
18042;SDS011;9146;48.074;11.968;2024-02-26T07:17:59;4.07;;;3.30;;
18042;SDS011;9146;48.074;11.968;2024-02-26T07:20:28;3.20;;;2.87;;
18042;SDS011;9146;48.074;11.968;2024-02-26T07:22:55;3.87;;;2.20;;
18042;SDS011;9146;48.074;11.968;2024-02-26T07:25:22;3.00;;;2.80;;
18042;SDS011;9146;48.074;11.968;2024-02-26T07:27:49;2.50;;;2.30;;
18042;SDS011;9146;48.074;11.968;2024-02-26T07:30:18;2.47;;;2.30;;
18042;SDS011;9146;48.074;11.968;2024-02-26T07:32:45;2.80;;;2.60;;
18042;SDS011;9146;48.074;11.968;2024-02-26T07:35:12;2.47;;;2.27;;
18042;SDS011;9146;48.074;11.968;2024-02-26T07:37:39;2.90;;;2.60;;
18042;SDS011;9146;48.074;11.968;2024-02-26T07:40:06;2.57;;;2.37;;
18042;SDS011;9146;48.074;11.968;2024-02-26T07:42:34;2.70;;;2.50;;
18042;SDS011;9146;48.074;11.968;2024-02-26T07:45:01;2.70;;;2.17;;
18042;SDS011;9146;48.074;11.968;2024-02-26T07:47:30;3.50;;;2.27;;
18042;SDS011;9146;48.074;11.968;2024-02-26T07:49:59;2.50;;;2.30;;
18042;SDS011;9146;48.074;11.968;2024-02-26T07:52:26;2.60;;;2.40;;
18042;SDS011;9146;48.074;11.968;2024-02-26T07:54:54;2.60;;;1.97;;
18042;SDS011;9146;48.074;11.968;2024-02-26T07:57:22;2.23;;;1.77;;
18042;SDS011;9146;48.074;11.968;2024-02-26T07:59:49;2.20;;;2.10;;
18042;SDS011;9146;48.074;11.968;2024-02-26T08:02:16;2.13;;;2.03;;
18042;SDS011;9146;48.074;11.968;2024-02-26T08:04:44;4.33;;;2.33;;
18042;SDS011;9146;48.074;11.968;2024-02-26T08:07:11;2.33;;;1.90;;
18042;SDS011;9146;48.074;11.968;2024-02-26T08:09:38;2.30;;;2.10;;
18042;SDS011;9146;48.074;11.968;2024-02-26T08:12:05;1.90;;;1.70;;
18042;SDS011;9146;48.074;11.968;2024-02-26T08:14:33;2.30;;;2.10;;
18042;SDS011;9146;48.074;11.968;2024-02-26T08:16:59;1.80;;;1.70;;
18042;SDS011;9146;48.074;11.968;2024-02-26T08:19:26;1.70;;;1.50;;
18042;SDS011;9146;48.074;11.968;2024-02-26T08:21:55;2.20;;;2.10;;
18042;SDS011;9146;48.074;11.968;2024-02-26T08:24:23;1.77;;;1.67;;
18042;SDS011;9146;48.074;11.968;2024-02-26T08:26:50;1.43;;;1.33;;
18042;SDS011;9146;48.074;11.968;2024-02-26T08:29:16;1.87;;;1.77;;
18042;SDS011;9146;48.074;11.968;2024-02-26T08:31:44;5.83;;;3.30;;
18042;SDS011;9146;48.074;11.968;2024-02-26T08:34:11;2.10;;;1.73;;
18042;SDS011;9146;48.074;11.968;2024-02-26T08:36:38;1.80;;;1.70;;
18042;SDS011;9146;48.074;11.968;2024-02-26T08:39:07;1.80;;;1.70;;
18042;SDS011;9146;48.074;11.968;2024-02-26T08:41:34;1.80;;;1.70;;
18042;SDS011;9146;48.074;11.968;2024-02-26T08:44:01;1.83;;;1.73;;
18042;SDS011;9146;48.074;11.968;2024-02-26T08:46:28;2.47;;;2.27;;
18042;SDS011;9146;48.074;11.968;2024-02-26T08:48:56;5.23;;;2.80;;
18042;SDS011;9146;48.074;11.968;2024-02-26T08:51:23;5.60;;;2.60;;
18042;SDS011;9146;48.074;11.968;2024-02-26T08:53:50;2.10;;;2.00;;
18042;SDS011;9146;48.074;11.968;2024-02-26T08:56:20;3.60;;;2.07;;
18042;SDS011;9146;48.074;11.968;2024-02-26T08:58:47;2.83;;;2.60;;
18042;SDS011;9146;48.074;11.968;2024-02-26T09:01:16;2.33;;;2.13;;
18042;SDS011;9146;48.074;11.968;2024-02-26T09:03:43;2.57;;;1.87;;
18042;SDS011;9146;48.074;11.968;2024-02-26T09:06:10;5.80;;;2.60;;
18042;SDS011;9146;48.074;11.968;2024-02-26T09:08:38;7.03;;;1.70;;
18042;SDS011;9146;48.074;11.968;2024-02-26T09:11:04;2.83;;;2.20;;
18042;SDS011;9146;48.074;11.968;2024-02-26T09:13:33;2.00;;;1.83;;
18042;SDS011;9146;48.074;11.968;2024-02-26T09:16:00;2.60;;;1.80;;
18042;SDS011;9146;48.074;11.968;2024-02-26T09:18:27;2.50;;;1.87;;
18042;SDS011;9146;48.074;11.968;2024-02-26T09:20:54;1.77;;;1.67;;
18042;SDS011;9146;48.074;11.968;2024-02-26T09:23:21;2.70;;;2.50;;
18042;SDS011;9146;48.074;11.968;2024-02-26T09:25:48;2.30;;;2.10;;
18042;SDS011;9146;48.074;11.968;2024-02-26T09:28:15;1.70;;;1.60;;
18042;SDS011;9146;48.074;11.968;2024-02-26T09:30:44;1.73;;;1.63;;
18042;SDS011;9146;48.074;11.968;2024-02-26T09:33:11;3.40;;;1.77;;
18042;SDS011;9146;48.074;11.968;2024-02-26T09:35:39;2.30;;;1.80;;
18042;SDS011;9146;48.074;11.968;2024-02-26T09:38:06;1.53;;;1.43;;
18042;SDS011;9146;48.074;11.968;2024-02-26T09:40:33;1.90;;;1.67;;
18042;SDS011;9146;48.074;11.968;2024-02-26T09:43:00;2.20;;;1.60;;
18042;SDS011;9146;48.074;11.968;2024-02-26T09:45:27;3.20;;;2.73;;
18042;SDS011;9146;48.074;11.968;2024-02-26T09:47:58;1.90;;;1.80;;
18042;SDS011;9146;48.074;11.968;2024-02-26T09:50:25;1.43;;;1.33;;
18042;SDS011;9146;48.074;11.968;2024-02-26T09:52:52;1.50;;;1.40;;
18042;SDS011;9146;48.074;11.968;2024-02-26T09:55:20;1.40;;;1.30;;
18042;SDS011;9146;48.074;11.968;2024-02-26T09:57:47;2.57;;;1.50;;
18042;SDS011;9146;48.074;11.968;2024-02-26T10:00:17;2.80;;;2.60;;
18042;SDS011;9146;48.074;11.968;2024-02-26T10:02:45;1.77;;;1.67;;
18042;SDS011;9146;48.074;11.968;2024-02-26T10:05:15;2.27;;;2.17;;
18042;SDS011;9146;48.074;11.968;2024-02-26T10:07:44;2.20;;;2.10;;
18042;SDS011;9146;48.074;11.968;2024-02-26T10:10:12;1.60;;;1.50;;
18042;SDS011;9146;48.074;11.968;2024-02-26T10:12:39;1.50;;;1.40;;
18042;SDS011;9146;48.074;11.968;2024-02-26T10:15:07;1.50;;;1.40;;
18042;SDS011;9146;48.074;11.968;2024-02-26T10:17:34;1.70;;;1.60;;
18042;SDS011;9146;48.074;11.968;2024-02-26T10:20:12;1.60;;;1.50;;
18042;SDS011;9146;48.074;11.968;2024-02-26T10:22:42;2.20;;;1.80;;
18042;SDS011;9146;48.074;11.968;2024-02-26T10:25:09;1.63;;;1.53;;
18042;SDS011;9146;48.074;11.968;2024-02-26T10:27:36;1.70;;;1.60;;
18042;SDS011;9146;48.074;11.968;2024-02-26T10:30:03;2.20;;;2.10;;
18042;SDS011;9146;48.074;11.968;2024-02-26T10:32:41;2.70;;;2.03;;
18042;SDS011;9146;48.074;11.968;2024-02-26T10:35:09;1.70;;;1.60;;
18042;SDS011;9146;48.074;11.968;2024-02-26T10:37:37;2.27;;;1.80;;
18042;SDS011;9146;48.074;11.968;2024-02-26T10:40:05;1.90;;;1.80;;
18042;SDS011;9146;48.074;11.968;2024-02-26T10:42:35;1.67;;;1.57;;
18042;SDS011;9146;48.074;11.968;2024-02-26T10:45:03;2.50;;;1.80;;
18042;SDS011;9146;48.074;11.968;2024-02-26T10:47:30;1.97;;;1.80;;
18042;SDS011;9146;48.074;11.968;2024-02-26T10:49:58;1.80;;;1.70;;
18042;SDS011;9146;48.074;11.968;2024-02-26T10:52:26;1.80;;;1.70;;
18042;SDS011;9146;48.074;11.968;2024-02-26T10:54:59;5.73;;;2.23;;
18042;SDS011;9146;48.074;11.968;2024-02-26T10:57:29;1.77;;;1.67;;
18042;SDS011;9146;48.074;11.968;2024-02-26T10:59:59;1.77;;;1.67;;
18042;SDS011;9146;48.074;11.968;2024-02-26T11:02:29;1.70;;;1.60;;
18042;SDS011;9146;48.074;11.968;2024-02-26T11:05:00;6.23;;;1.83;;
18042;SDS011;9146;48.074;11.968;2024-02-26T11:07:28;2.23;;;2.00;;
18042;SDS011;9146;48.074;11.968;2024-02-26T11:09:58;1.63;;;1.53;;
18042;SDS011;9146;48.074;11.968;2024-02-26T11:12:27;2.03;;;1.90;;
18042;SDS011;9146;48.074;11.968;2024-02-26T11:14:55;1.50;;;1.40;;
18042;SDS011;9146;48.074;11.968;2024-02-26T11:17:23;1.63;;;1.53;;
18042;SDS011;9146;48.074;11.968;2024-02-26T11:19:54;2.07;;;1.87;;
18042;SDS011;9146;48.074;11.968;2024-02-26T11:22:23;1.63;;;1.53;;
18042;SDS011;9146;48.074;11.968;2024-02-26T11:24:51;1.93;;;1.83;;
18042;SDS011;9146;48.074;11.968;2024-02-26T11:27:21;2.70;;;1.70;;
18042;SDS011;9146;48.074;11.968;2024-02-26T11:29:55;2.77;;;2.20;;
18042;SDS011;9146;48.074;11.968;2024-02-26T11:32:25;1.60;;;1.50;;
18042;SDS011;9146;48.074;11.968;2024-02-26T11:34:53;2.23;;;1.80;;
18042;SDS011;9146;48.074;11.968;2024-02-26T11:37:20;1.30;;;1.23;;
18042;SDS011;9146;48.074;11.968;2024-02-26T11:39:48;1.63;;;1.30;;
18042;SDS011;9146;48.074;11.968;2024-02-26T11:42:17;1.63;;;1.40;;
18042;SDS011;9146;48.074;11.968;2024-02-26T11:44:50;1.57;;;1.47;;
18042;SDS011;9146;48.074;11.968;2024-02-26T11:47:18;1.43;;;1.40;;
18042;SDS011;9146;48.074;11.968;2024-02-26T11:49:45;1.70;;;1.60;;
18042;SDS011;9146;48.074;11.968;2024-02-26T11:52:13;1.60;;;1.33;;
18042;SDS011;9146;48.074;11.968;2024-02-26T11:54:44;1.70;;;1.60;;
18042;SDS011;9146;48.074;11.968;2024-02-26T11:57:21;1.63;;;1.53;;
18042;SDS011;9146;48.074;11.968;2024-02-26T11:59:51;1.70;;;1.60;;
18042;SDS011;9146;48.074;11.968;2024-02-26T12:05:12;1.70;;;1.60;;
18042;SDS011;9146;48.074;11.968;2024-02-26T12:07:42;1.53;;;1.40;;
18042;SDS011;9146;48.074;11.968;2024-02-26T12:10:24;12.20;;;1.83;;
18042;SDS011;9146;48.074;11.968;2024-02-26T12:12:53;1.40;;;1.30;;
18042;SDS011;9146;48.074;11.968;2024-02-26T12:15:26;1.17;;;1.17;;
18042;SDS011;9146;48.074;11.968;2024-02-26T12:17:57;2.30;;;1.93;;
18042;SDS011;9146;48.074;11.968;2024-02-26T12:20:26;1.73;;;1.63;;
18042;SDS011;9146;48.074;11.968;2024-02-26T12:22:53;1.13;;;1.13;;
18042;SDS011;9146;48.074;11.968;2024-02-26T12:25:24;1.10;;;1.07;;
18042;SDS011;9146;48.074;11.968;2024-02-26T12:27:51;1.60;;;1.50;;
18042;SDS011;9146;48.074;11.968;2024-02-26T12:30:19;1.27;;;1.17;;
18042;SDS011;9146;48.074;11.968;2024-02-26T12:32:47;3.53;;;1.60;;
18042;SDS011;9146;48.074;11.968;2024-02-26T12:35:16;2.23;;;1.47;;
18042;SDS011;9146;48.074;11.968;2024-02-26T12:37:43;2.17;;;1.67;;
18042;SDS011;9146;48.074;11.968;2024-02-26T12:40:11;1.40;;;1.30;;
18042;SDS011;9146;48.074;11.968;2024-02-26T12:42:38;4.00;;;1.80;;
18042;SDS011;9146;48.074;11.968;2024-02-26T12:45:06;2.33;;;2.13;;
18042;SDS011;9146;48.074;11.968;2024-02-26T12:47:35;5.20;;;1.67;;
18042;SDS011;9146;48.074;11.968;2024-02-26T12:50:05;1.47;;;1.37;;
18042;SDS011;9146;48.074;11.968;2024-02-26T12:52:33;1.90;;;1.80;;
18042;SDS011;9146;48.074;11.968;2024-02-26T12:55:01;2.13;;;1.37;;
18042;SDS011;9146;48.074;11.968;2024-02-26T12:57:29;1.83;;;1.20;;
18042;SDS011;9146;48.074;11.968;2024-02-26T12:59:57;1.70;;;1.60;;
18042;SDS011;9146;48.074;11.968;2024-02-26T13:02:25;2.10;;;1.53;;
18042;SDS011;9146;48.074;11.968;2024-02-26T13:04:53;1.60;;;1.50;;
18042;SDS011;9146;48.074;11.968;2024-02-26T13:07:23;1.93;;;1.80;;
18042;SDS011;9146;48.074;11.968;2024-02-26T13:09:50;1.87;;;1.67;;
18042;SDS011;9146;48.074;11.968;2024-02-26T13:12:18;2.07;;;1.97;;
18042;SDS011;9146;48.074;11.968;2024-02-26T13:14:45;1.87;;;1.77;;
18042;SDS011;9146;48.074;11.968;2024-02-26T13:17:12;2.23;;;2.03;;
18042;SDS011;9146;48.074;11.968;2024-02-26T13:19:48;5.30;;;2.00;;
18042;SDS011;9146;48.074;11.968;2024-02-26T13:22:16;2.40;;;2.20;;
18042;SDS011;9146;48.074;11.968;2024-02-26T13:24:54;3.00;;;1.43;;
18042;SDS011;9146;48.074;11.968;2024-02-26T13:27:22;1.87;;;1.77;;
18042;SDS011;9146;48.074;11.968;2024-02-26T13:29:50;1.40;;;1.30;;
18042;SDS011;9146;48.074;11.968;2024-02-26T13:32:31;1.90;;;1.80;;
18042;SDS011;9146;48.074;11.968;2024-02-26T13:35:05;1.80;;;1.50;;
18042;SDS011;9146;48.074;11.968;2024-02-26T13:37:34;2.53;;;2.33;;
18042;SDS011;9146;48.074;11.968;2024-02-26T13:40:05;1.70;;;1.60;;
18042;SDS011;9146;48.074;11.968;2024-02-26T13:42:33;1.70;;;1.60;;
18042;SDS011;9146;48.074;11.968;2024-02-26T13:45:01;2.10;;;1.70;;
18042;SDS011;9146;48.074;11.968;2024-02-26T13:47:28;1.60;;;1.50;;
18042;SDS011;9146;48.074;11.968;2024-02-26T13:49:55;1.33;;;1.27;;
18042;SDS011;9146;48.074;11.968;2024-02-26T13:52:22;4.17;;;2.20;;
18042;SDS011;9146;48.074;11.968;2024-02-26T13:54:50;2.20;;;1.63;;
18042;SDS011;9146;48.074;11.968;2024-02-26T13:57:19;1.80;;;1.70;;
18042;SDS011;9146;48.074;11.968;2024-02-26T13:59:47;1.83;;;1.50;;
18042;SDS011;9146;48.074;11.968;2024-02-26T14:02:15;2.33;;;1.80;;
18042;SDS011;9146;48.074;11.968;2024-02-26T14:04:42;1.90;;;1.80;;
18042;SDS011;9146;48.074;11.968;2024-02-26T14:07:09;1.77;;;1.67;;
18042;SDS011;9146;48.074;11.968;2024-02-26T14:09:38;4.70;;;1.60;;
18042;SDS011;9146;48.074;11.968;2024-02-26T14:12:05;1.30;;;1.20;;
18042;SDS011;9146;48.074;11.968;2024-02-26T14:14:34;1.50;;;1.40;;
18042;SDS011;9146;48.074;11.968;2024-02-26T14:17:03;1.50;;;1.40;;
18042;SDS011;9146;48.074;11.968;2024-02-26T14:19:31;1.67;;;1.57;;
18042;SDS011;9146;48.074;11.968;2024-02-26T14:21:58;1.60;;;1.50;;
18042;SDS011;9146;48.074;11.968;2024-02-26T14:24:25;2.63;;;1.90;;
18042;SDS011;9146;48.074;11.968;2024-02-26T14:26:52;1.60;;;1.50;;
18042;SDS011;9146;48.074;11.968;2024-02-26T14:29:19;1.27;;;1.20;;
18042;SDS011;9146;48.074;11.968;2024-02-26T14:31:47;1.63;;;1.30;;
18042;SDS011;9146;48.074;11.968;2024-02-26T14:34:14;1.50;;;1.40;;
18042;SDS011;9146;48.074;11.968;2024-02-26T14:36:43;2.37;;;1.70;;
18042;SDS011;9146;48.074;11.968;2024-02-26T14:39:11;1.70;;;1.60;;
18042;SDS011;9146;48.074;11.968;2024-02-26T14:41:38;1.23;;;1.23;;
18042;SDS011;9146;48.074;11.968;2024-02-26T14:44:06;1.73;;;1.60;;
18042;SDS011;9146;48.074;11.968;2024-02-26T14:46:33;1.37;;;1.37;;
18042;SDS011;9146;48.074;11.968;2024-02-26T14:49:01;1.10;;;1.10;;
18042;SDS011;9146;48.074;11.968;2024-02-26T14:51:28;2.03;;;1.20;;